Time;durP1;ratioP1;P1;durP2;ratioP2;P2;SDS_P1;SDS_P2;PMS_P1;PMS_P2;Temp;Humidity;BMP_temperature;BMP_pressure;BME280_temperature;BME280_humidity;BME280_pressure;Samples;Min_cycle;Max_cycle;Signal;HPM_P1;HPM_P2
2022/09/16 00:01:22;;;;;;;;;1.40;1.40;;;;;25.24;54.87;98638.84;5069666;28;8949;-78
2022/09/16 00:03:55;;;;;;;;;3.80;3.80;;;;;25.20;55.11;98639.97;5068815;28;8860;-74
2022/09/16 00:06:27;;;;;;;;;3.20;3.00;;;;;25.02;55.52;98626.22;5073543;28;8976;-77
2022/09/16 00:08:57;;;;;;;;;3.40;2.60;;;;;24.84;56.44;98647.09;5072193;28;8840;-77
2022/09/16 00:11:25;;;;;;;;;2.00;2.00;;;;;24.90;56.52;98636.84;5051072;28;8865;-77
2022/09/16 00:13:54;;;;;;;;;3.00;3.00;;;;;24.88;56.71;98629.94;5033872;28;8874;-78
2022/09/16 00:16:25;;;;;;;;;3.80;3.00;;;;;24.73;57.55;98618.59;5032542;28;8858;-78
2022/09/16 00:18:55;;;;;;;;;3.00;3.00;;;;;24.90;56.82;98628.84;5046709;28;8861;-77
2022/09/16 00:21:25;;;;;;;;;2.00;2.00;;;;;24.95;56.34;98635.66;5014544;28;8946;-77
2022/09/16 00:23:55;;;;;;;;;3.40;3.40;;;;;25.02;56.20;98627.06;5014673;28;8997;-77
2022/09/16 00:26:24;;;;;;;;;4.40;2.00;;;;;25.13;55.32;98609.41;5047231;28;8994;-77
2022/09/16 00:28:53;;;;;;;;;3.00;3.00;;;;;24.98;55.46;98603.41;5031119;28;8850;-77
2022/09/16 00:31:21;;;;;;;;;2.00;2.00;;;;;24.94;55.43;98591.28;5066955;28;8848;-78
2022/09/16 00:33:50;;;;;;;;;2.60;1.60;;;;;24.84;55.48;98585.75;5050404;28;8860;-78
2022/09/16 00:36:20;;;;;;;;;1.60;1.60;;;;;24.76;55.63;98605.00;5049462;28;8832;-79
2022/09/16 00:38:53;;;;;;;;;2.40;2.40;;;;;24.83;55.52;98616.91;5034186;28;8863;-79
2022/09/16 00:41:26;;;;;;;;;1.00;1.00;;;;;24.91;55.16;98613.69;5067373;28;8868;-77
2022/09/16 00:43:57;;;;;;;;;1.40;1.40;;;;;25.02;54.96;98612.88;5051351;28;8874;-77
2022/09/16 00:46:32;;;;;;;;;2.00;1.00;;;;;25.06;54.91;98601.00;5067340;28;8944;-77
2022/09/16 00:49:04;;;;;;;;;2.00;1.80;;;;;24.94;55.36;98615.28;5057515;28;8935;-77
2022/09/16 00:51:34;;;;;;;;;2.40;2.40;;;;;25.03;55.46;98618.13;5090624;28;9600;-78
2022/09/16 00:54:08;;;;;;;;;1.20;1.20;;;;;25.10;54.86;98624.69;5090073;28;8871;-77
2022/09/16 00:56:41;;;;;;;;;3.80;2.00;;;;;24.77;55.54;98633.38;5087918;28;8851;-78
2022/09/16 00:59:14;;;;;;;;;1.40;1.00;;;;;24.44;56.77;98639.31;5085039;28;8941;-78
2022/09/16 01:01:44;;;;;;;;;2.20;2.00;;;;;23.97;58.29;98657.75;5069363;28;9736;-78
2022/09/16 01:04:19;;;;;;;;;3.00;2.00;;;;;23.29;60.87;98672.09;5068050;28;8924;-78
2022/09/16 01:06:49;;;;;;;;;2.40;1.00;;;;;22.67;63.30;98681.44;5046338;28;8857;-78
2022/09/16 01:09:22;;;;;;;;;1.00;1.00;;;;;22.70;63.64;98683.03;5049950;28;8864;-78
2022/09/16 01:11:51;;;;;;;;;2.00;2.00;;;;;22.75;63.32;98684.44;5066556;28;8902;-78
2022/09/16 01:17:27;;;;;;;;;1.00;1.00;;;;;23.44;60.85;98688.84;5046454;28;8854;-77
2022/09/16 01:20:14;;;;;;;;;2.60;2.60;;;;;23.71;59.84;98672.84;5029874;28;8857;-78
2022/09/16 01:23:01;;;;;;;;;1.00;1.00;;;;;23.97;58.78;98673.72;5046030;28;8983;-78
2022/09/16 01:25:49;;;;;;;;;1.80;1.80;;;;;23.94;59.16;98676.59;5046794;28;8854;-77
2022/09/16 01:28:48;;;;;;;;;3.20;3.00;;;;;24.20;58.21;98672.13;5062684;28;8865;-78
2022/09/16 01:31:22;;;;;;;;;2.00;2.00;;;;;24.20;58.42;98668.59;5063254;28;8924;-77
2022/09/16 01:34:00;;;;;;;;;3.40;2.00;;;;;24.35;58.15;98670.16;5066877;28;8863;-77
2022/09/16 01:36:41;;;;;;;;;2.80;2.20;;;;;24.46;57.88;98672.91;5077539;28;8855;-76
2022/09/16 01:39:22;;;;;;;;;3.00;3.00;;;;;24.50;57.62;98671.72;5102272;28;8902;-78
2022/09/16 01:42:04;;;;;;;;;3.00;3.00;;;;;24.30;58.58;98675.81;5071428;28;8939;-79
2022/09/16 01:44:44;;;;;;;;;4.00;3.00;;;;;24.57;57.25;98669.50;5071219;28;8862;-78
2022/09/16 01:47:22;;;;;;;;;2.00;2.00;;;;;24.68;57.32;98682.91;5067880;28;8954;-77
2022/09/16 01:50:02;;;;;;;;;3.00;3.00;;;;;24.39;58.20;98689.47;5069064;28;8973;-76
2022/09/16 01:52:42;;;;;;;;;2.00;2.00;;;;;24.58;57.49;98687.19;5068977;28;8838;-79
2022/09/16 01:55:18;;;;;;;;;3.00;1.40;;;;;24.66;57.20;98689.31;5068483;28;8842;-77
2022/09/16 01:57:53;;;;;;;;;2.80;2.80;;;;;24.78;56.93;98688.41;5068960;28;8854;-76
2022/09/16 02:00:22;;;;;;;;;3.00;3.00;;;;;24.85;56.75;98681.66;5082696;28;8839;-76
2022/09/16 02:02:58;;;;;;;;;2.80;2.20;;;;;24.93;56.53;98682.94;5101061;28;8862;-76
2022/09/16 02:05:33;;;;;;;;;4.20;3.40;;;;;24.98;56.15;98673.63;5067471;28;8945;-78
2022/09/16 02:08:06;;;;;;;;;4.20;4.20;;;;;25.08;55.82;98663.09;5101266;28;8877;-79
2022/09/16 02:10:40;;;;;;;;;2.20;2.20;;;;;25.10;55.76;98667.38;5068508;28;9630;-78
2022/09/16 02:13:17;;;;;;;;;2.00;2.00;;;;;25.02;55.98;98680.41;5067003;28;8936;-77
2022/09/16 02:15:48;;;;;;;;;4.20;3.60;;;;;25.07;55.56;98672.09;5067481;28;8885;-79
2022/09/16 02:18:24;;;;;;;;;3.60;3.00;;;;;25.14;55.73;98676.00;5068495;28;8882;-78
2022/09/16 02:20:57;;;;;;;;;4.60;3.60;;;;;25.18;55.31;98674.81;5071946;28;8854;-76
2022/09/16 02:23:32;;;;;;;;;3.80;3.00;;;;;25.20;55.41;98677.34;5076299;28;8969;-77
2022/09/16 02:26:05;;;;;;;;;2.00;2.00;;;;;25.18;55.22;98672.16;5075337;28;8873;-76
2022/09/16 02:28:38;;;;;;;;;3.00;2.80;;;;;25.22;55.16;98670.94;5105619;28;8858;-77
2022/09/16 02:31:09;;;;;;;;;4.20;2.80;;;;;25.20;55.03;98672.88;5086994;28;8849;-77
2022/09/16 02:33:45;;;;;;;;;6.40;2.80;;;;;25.27;55.19;98675.94;5070802;28;8858;-78
2022/09/16 02:36:17;;;;;;;;;3.80;2.40;;;;;25.27;55.21;98663.47;5084983;28;8842;-76
2022/09/16 02:38:49;;;;;;;;;2.00;2.00;;;;;25.31;55.10;98679.25;5101152;27;8964;-77
2022/09/16 02:41:18;;;;;;;;;4.60;3.40;;;;;25.35;54.56;98686.94;5067092;28;8830;-78
2022/09/16 02:43:46;;;;;;;;;3.00;3.00;;;;;25.40;54.43;98690.06;5068588;28;8866;-76
2022/09/16 02:46:22;;;;;;;;;4.00;4.00;;;;;25.43;54.61;98699.69;5067756;28;8893;-77
2022/09/16 02:49:03;;;;;;;;;2.00;2.00;;;;;25.43;54.18;98689.84;5066414;28;8858;-78
2022/09/16 02:51:40;;;;;;;;;2.80;2.40;;;;;25.36;54.32;98693.94;5049777;28;8858;-79
2022/09/16 02:54:16;;;;;;;;;3.20;3.20;;;;;25.38;54.44;98686.69;5048999;28;8892;-77
2022/09/16 02:56:45;;;;;;;;;1.80;1.80;;;;;25.37;54.50;98703.66;5083611;28;8916;-77
2022/09/16 02:59:15;;;;;;;;;3.00;3.00;;;;;25.42;54.20;98705.97;5067782;28;8881;-77
2022/09/16 03:01:45;;;;;;;;;3.60;2.20;;;;;25.33;54.45;98698.66;5049179;28;8957;-76
2022/09/16 03:04:18;;;;;;;;;2.20;2.20;;;;;25.41;54.18;98699.81;5066877;28;8830;-77
2022/09/16 03:06:47;;;;;;;;;18.00;15.20;;;;;25.46;53.76;98688.75;5068417;28;8866;-78
2022/09/16 03:09:18;;;;;;;;;31.40;29.40;;;;;25.48;53.51;98698.38;5067342;28;8960;-79
2022/09/16 03:12:11;;;;;;;;;16.20;16.20;;;;;25.24;54.35;98690.38;5067031;28;10201;-80
2022/09/16 03:15:18;;;;;;;;;4.40;4.40;;;;;25.27;53.40;98689.28;5067714;28;8969;-77
2022/09/16 03:18:15;;;;;;;;;2.40;2.40;;;;;24.94;54.35;98669.47;5067724;28;8955;-77
2022/09/16 03:20:54;;;;;;;;;2.40;2.40;;;;;24.99;54.15;98670.00;5081688;28;8962;-78
2022/09/16 03:23:43;;;;;;;;;6.40;3.00;;;;;25.13;53.39;98665.44;5070323;28;8867;-77
2022/09/16 03:26:20;;;;;;;;;3.00;3.00;;;;;25.14;53.09;98667.13;5070304;28;8905;-77
2022/09/16 03:28:59;;;;;;;;;3.00;2.00;;;;;24.88;53.44;98667.28;5087059;28;8986;-76
2022/09/16 03:31:32;;;;;;;;;3.00;1.40;;;;;25.06;53.09;98654.38;5090855;28;8820;-76
2022/09/16 03:34:06;;;;;;;;;2.60;2.00;;;;;25.24;52.64;98653.03;5107640;28;9628;-76
2022/09/16 03:36:43;;;;;;;;;89.50;79.75;;;;;25.35;52.80;98649.56;5055887;28;8981;-78
2022/09/16 03:39:13;;;;;;;;;38.25;33.75;;;;;25.37;52.67;98638.75;5070327;28;11571;-76
2022/09/16 03:41:42;;;;;;;;;7.80;7.80;;;;;25.45;52.04;98621.19;5070014;28;8889;-78
2022/09/16 03:44:11;;;;;;;;;7.00;6.00;;;;;25.50;51.61;98636.88;5069959;28;8838;-78
2022/09/16 03:46:40;;;;;;;;;3.80;3.80;;;;;25.58;51.23;98634.44;5071977;28;8960;-77
2022/09/16 03:49:09;;;;;;;;;5.20;5.20;;;;;25.67;51.09;98640.88;5089272;28;8949;-77
2022/09/16 03:51:39;;;;;;;;;9.40;8.40;;;;;25.70;50.93;98635.31;5060838;28;8844;-76
2022/09/16 03:54:08;;;;;;;;;68.33;54.33;;;;;25.75;50.83;98634.97;5110187;28;8870;-77
2022/09/16 03:56:37;;;;;;;;;18.40;15.00;;;;;25.81;50.40;98647.84;5092231;28;9285;-77
2022/09/16 03:59:05;;;;;;;;;9.00;7.00;;;;;25.87;50.39;98656.19;5068319;28;8840;-79
2022/09/16 04:01:33;;;;;;;;;5.00;5.00;;;;;25.88;50.28;98647.22;5035359;28;8844;-78
2022/09/16 04:04:02;;;;;;;;;20.60;17.60;;;;;25.94;50.42;98651.28;5001344;28;8882;-77
2022/09/16 04:06:31;;;;;;;;;39.00;33.50;;;;;25.92;49.40;98661.22;5048900;28;9009;-76
2022/09/16 04:09:02;;;;;;;;;6.80;6.80;;;;;25.90;49.65;98651.59;5017863;28;8954;-79
2022/09/16 04:11:31;;;;;;;;;7.80;7.60;;;;;25.94;49.70;98656.63;5068217;28;9349;-78
2022/09/16 04:13:59;;;;;;;;;4.40;3.80;;;;;26.00;49.87;98663.31;5068480;28;8856;-77
2022/09/16 04:16:27;;;;;;;;;3.20;3.20;;;;;26.06;49.40;98660.13;5038819;28;8855;-79
2022/09/16 04:18:56;;;;;;;;;4.00;4.00;;;;;26.11;49.35;98654.44;5071275;28;8883;-77
2022/09/16 04:21:25;;;;;;;;;5.00;4.60;;;;;26.04;49.40;98664.75;5034676;28;8846;-77
2022/09/16 04:23:54;;;;;;;;;5.00;5.00;;;;;25.96;50.04;98661.84;5047896;28;8985;-76
2022/09/16 04:26:24;;;;;;;;;4.00;4.00;;;;;25.93;50.19;98662.06;5048480;28;8854;-79
2022/09/16 04:28:54;;;;;;;;;3.00;3.00;;;;;25.98;49.80;98663.41;5047900;28;8892;-78
2022/09/16 04:31:22;;;;;;;;;3.00;3.00;;;;;26.03;49.91;98666.59;5068780;28;8892;-77
2022/09/16 04:33:51;;;;;;;;;3.80;3.60;;;;;26.06;49.58;98660.97;5102365;28;8862;-77
2022/09/16 04:36:20;;;;;;;;;11.20;10.40;;;;;26.10;49.52;98653.56;5051481;28;8873;-79
2022/09/16 04:38:49;;;;;;;;;3.60;3.60;;;;;26.16;49.18;98654.91;5074757;28;8881;-78
2022/09/16 04:41:20;;;;;;;;;3.20;2.20;;;;;26.12;48.90;98640.94;5072450;28;9741;-76
2022/09/16 04:43:53;;;;;;;;;3.00;3.00;;;;;26.19;49.14;98633.31;5121561;27;8875;-77
2022/09/16 04:46:22;;;;;;;;;2.40;2.40;;;;;26.14;48.77;98628.31;5112937;28;9019;-78
2022/09/16 04:48:52;;;;;;;;;3.00;3.00;;;;;26.13;49.41;98637.31;5111306;28;9013;-77
2022/09/16 04:51:21;;;;;;;;;2.80;2.80;;;;;26.14;49.54;98647.00;5113146;28;8821;-76
2022/09/16 04:53:50;;;;;;;;;4.00;4.00;;;;;26.10;49.66;98647.38;5106846;28;8881;-76
2022/09/16 04:56:21;;;;;;;;;4.00;3.00;;;;;26.09;49.40;98654.56;5068954;28;8862;-78
2022/09/16 04:58:52;;;;;;;;;3.00;3.00;;;;;26.11;49.18;98662.47;5068847;28;8979;-77
2022/09/16 05:01:23;;;;;;;;;4.00;3.00;;;;;26.15;48.59;98658.56;5069152;28;8899;-78
2022/09/16 05:03:54;;;;;;;;;5.00;5.00;;;;;26.22;48.67;98643.75;5102019;28;8880;-78
2022/09/16 05:06:25;;;;;;;;;3.80;3.60;;;;;26.22;49.11;98633.91;5070083;28;8980;-77
2022/09/16 05:08:55;;;;;;;;;4.20;3.60;;;;;26.18;49.29;98618.22;5087527;28;8861;-77
2022/09/16 05:11:26;;;;;;;;;4.00;4.00;;;;;26.17;49.67;98620.06;5091280;28;8891;-78
2022/09/16 05:13:58;;;;;;;;;4.20;4.20;;;;;26.23;49.82;98619.56;5095564;28;8846;-77
2022/09/16 05:16:27;;;;;;;;;6.00;4.40;;;;;26.17;50.02;98617.38;5084234;28;8839;-78
2022/09/16 05:18:58;;;;;;;;;5.00;5.00;;;;;26.17;50.06;98628.06;5088388;28;8843;-78
2022/09/16 05:21:28;;;;;;;;;3.00;3.00;;;;;26.14;50.14;98630.97;5080633;28;9025;-78
2022/09/16 05:24:00;;;;;;;;;4.80;3.20;;;;;26.19;50.28;98639.50;5070771;28;8982;-77
2022/09/16 05:26:31;;;;;;;;;4.00;4.00;;;;;26.22;50.31;98628.56;5089361;28;8914;-77
2022/09/16 05:29:03;;;;;;;;;3.00;3.00;;;;;26.24;49.88;98623.09;5087417;28;8824;-77
2022/09/16 05:31:33;;;;;;;;;3.00;3.00;;;;;26.23;49.97;98624.91;5087153;28;8918;-80
2022/09/16 05:34:04;;;;;;;;;4.00;3.00;;;;;26.25;50.23;98641.66;5056210;28;8870;-78
2022/09/16 05:36:36;;;;;;;;;2.80;2.80;;;;;26.33;50.17;98665.09;5075961;28;8939;-78
2022/09/16 05:39:05;;;;;;;;;2.60;2.20;;;;;26.37;50.12;98679.06;5101521;28;8992;-80
2022/09/16 05:41:54;;;;;;;;;7.00;4.00;;;;;26.38;49.38;98678.97;5083810;28;8855;-79
2022/09/16 05:44:25;;;;;;;;;6.00;5.60;;;;;26.47;49.48;98668.53;5087926;28;8855;-77
2022/09/16 05:46:54;;;;;;;;;6.00;5.40;;;;;26.50;49.23;98652.22;5089192;28;8879;-79
2022/09/16 05:49:22;;;;;;;;;7.00;7.00;;;;;26.53;49.63;98626.06;5105093;28;8990;-77
2022/09/16 05:51:52;;;;;;;;;9.60;6.20;;;;;26.36;50.15;98629.28;5087343;28;8848;-77
2022/09/16 05:54:23;;;;;;;;;3.60;3.60;;;;;26.35;50.62;98648.94;5071738;28;8951;-78
2022/09/16 05:56:53;;;;;;;;;3.00;3.00;;;;;26.34;50.52;98656.13;5094086;28;8860;-80
2022/09/16 05:59:22;;;;;;;;;2.80;2.80;;;;;26.25;50.88;98651.50;5087823;28;8852;-80
2022/09/16 06:01:52;;;;;;;;;4.00;3.20;;;;;26.31;50.38;98645.66;5089319;28;8886;-81
2022/09/16 06:04:21;;;;;;;;;3.60;3.60;;;;;26.25;50.76;98644.34;5089061;28;8859;-78
2022/09/16 06:06:49;;;;;;;;;5.00;5.00;;;;;26.23;50.75;98656.97;5052178;28;8855;-77
2022/09/16 06:09:20;;;;;;;;;4.20;4.20;;;;;26.23;51.29;98658.81;5069263;28;8874;-80
2022/09/16 06:11:51;;;;;;;;;3.00;3.00;;;;;26.20;51.54;98648.34;5091224;28;8931;-79
2022/09/16 06:14:21;;;;;;;;;6.80;5.20;;;;;26.28;51.04;98635.25;5100854;28;8856;-78
2022/09/16 06:16:52;;;;;;;;;4.00;3.00;;;;;26.25;51.48;98648.84;5102833;28;8856;-77
2022/09/16 06:19:20;;;;;;;;;3.40;3.40;;;;;26.34;51.18;98656.13;5084196;28;9712;-79
2022/09/16 06:21:49;;;;;;;;;4.00;4.00;;;;;26.36;50.76;98648.84;5086386;28;8947;-80
2022/09/16 06:24:19;;;;;;;;;4.00;4.00;;;;;26.43;50.83;98636.69;5068227;28;8955;-79
2022/09/16 06:26:48;;;;;;;;;3.20;3.20;;;;;26.39;50.71;98645.91;5087529;28;9703;-78
2022/09/16 06:29:17;;;;;;;;;5.00;5.00;;;;;26.53;50.60;98649.31;5066041;28;8994;-79
2022/09/16 06:31:46;;;;;;;;;6.60;5.40;;;;;26.64;49.78;98643.97;5087674;28;9099;-78
2022/09/16 06:34:17;;;;;;;;;5.40;4.40;;;;;26.71;49.75;98641.63;5102332;28;9009;-78
2022/09/16 06:36:47;;;;;;;;;4.00;4.00;;;;;26.82;49.43;98646.94;5083481;28;8886;-78
2022/09/16 06:39:17;;;;;;;;;4.00;4.00;;;;;26.77;48.68;98647.34;5085664;28;8867;-77
2022/09/16 06:41:50;;;;;;;;;3.00;3.00;;;;;26.81;48.33;98651.44;5085272;28;8855;-77
2022/09/16 06:44:23;;;;;;;;;3.40;3.40;;;;;26.90;48.20;98654.34;5085667;28;8874;-78
2022/09/16 06:46:51;;;;;;;;;3.00;2.40;;;;;27.08;47.23;98649.31;5084097;28;8958;-77
2022/09/16 06:49:21;;;;;;;;;1.80;1.80;;;;;27.12;47.25;98653.41;5034673;28;8841;-76
2022/09/16 06:51:50;;;;;;;;;4.60;4.60;;;;;27.21;47.34;98658.84;5065326;28;8844;-78
2022/09/16 06:54:18;;;;;;;;;5.80;4.40;;;;;27.20;47.57;98657.16;5067569;28;8858;-76
2022/09/16 06:56:48;;;;;;;;;0.40;0.40;;;;;27.18;46.89;98664.47;5084795;28;8857;-78
2022/09/16 06:59:16;;;;;;;;;4.00;4.00;;;;;27.28;47.05;98658.34;5036250;28;8854;-78
2022/09/16 07:01:45;;;;;;;;;4.20;3.40;;;;;27.25;46.38;98655.94;5068414;28;8868;-76
2022/09/16 07:04:13;;;;;;;;;4.20;4.00;;;;;27.30;47.57;98664.47;5086114;28;8855;-78
2022/09/16 07:06:44;;;;;;;;;5.20;5.20;;;;;27.37;47.00;98661.13;5073085;28;9033;-78
2022/09/16 07:09:33;;;;;;;;;4.00;4.00;;;;;27.46;47.29;98666.69;5088780;28;8858;-79
2022/09/16 07:12:02;;;;;;;;;4.60;3.80;;;;;27.49;46.84;98658.41;5072684;28;8863;-77
2022/09/16 07:14:31;;;;;;;;;5.40;3.80;;;;;27.56;47.22;98651.50;5039287;28;8839;-79
2022/09/16 07:17:00;;;;;;;;;6.20;4.60;;;;;27.66;47.03;98640.88;5089126;28;8852;-77
2022/09/16 07:19:29;;;;;;;;;6.00;6.00;;;;;27.67;46.31;98651.44;5098113;28;8866;-77
2022/09/16 07:21:59;;;;;;;;;5.00;5.00;;;;;27.74;46.70;98649.94;5090930;28;8875;-77
2022/09/16 07:24:27;;;;;;;;;6.00;5.00;;;;;27.73;45.84;98660.78;5080256;28;8917;-79
2022/09/16 07:26:56;;;;;;;;;4.60;4.60;;;;;27.67;46.23;98669.34;5090525;28;8866;-77
2022/09/16 07:29:24;;;;;;;;;6.40;6.00;;;;;27.71;46.06;98666.31;5073284;28;8866;-78
2022/09/16 07:31:53;;;;;;;;;7.00;7.00;;;;;27.78;45.69;98661.25;5086694;28;8956;-78
2022/09/16 07:34:22;;;;;;;;;3.60;3.60;;;;;27.71;45.32;98668.97;5107025;28;9025;-80
2022/09/16 07:36:50;;;;;;;;;4.00;4.00;;;;;27.83;45.25;98684.97;5089140;28;8952;-77
2022/09/16 07:39:21;;;;;;;;;4.80;3.60;;;;;27.44;45.85;98682.03;5089007;28;8875;-77
2022/09/16 07:41:49;;;;;;;;;8.80;7.60;;;;;27.49;46.32;98678.00;5089179;28;8832;-79
2022/09/16 07:44:19;;;;;;;;;7.60;7.60;;;;;27.69;46.03;98667.41;5055044;28;8847;-78
2022/09/16 07:46:49;;;;;;;;;8.80;8.80;;;;;27.88;45.77;98669.34;5086057;28;8874;-78
2022/09/16 07:49:19;;;;;;;;;4.60;4.60;;;;;27.21;46.53;98669.56;5090574;28;8933;-77
2022/09/16 07:51:48;;;;;;;;;3.40;3.40;;;;;26.72;47.19;98673.59;5084724;28;8913;-78
2022/09/16 07:54:18;;;;;;;;;2.40;2.00;;;;;26.14;48.33;98687.09;5086186;28;8878;-78
2022/09/16 07:56:49;;;;;;;;;4.20;4.20;;;;;26.58;48.03;98688.06;5113120;27;8870;-77
2022/09/16 07:59:19;;;;;;;;;5.00;4.40;;;;;26.83;47.18;98692.31;5091694;27;8840;-79
2022/09/16 08:01:49;;;;;;;;;4.20;3.40;;;;;27.26;46.65;98693.31;5102843;28;8873;-77
2022/09/16 08:04:19;;;;;;;;;2.00;2.00;;;;;27.52;45.48;98691.09;5088825;28;8863;-76
2022/09/16 08:06:49;;;;;;;;;2.20;2.20;;;;;26.93;46.91;98694.22;5106756;28;8871;-77
2022/09/16 08:09:17;;;;;;;;;3.20;2.60;;;;;25.97;49.45;98692.91;5089370;28;8879;-77
2022/09/16 08:12:09;;;;;;;;;3.00;3.00;;;;;25.53;50.35;98692.66;5102594;28;8866;-79
2022/09/16 08:14:38;;;;;;;;;5.80;5.00;;;;;25.95;49.83;98673.50;5088947;28;8848;-78
2022/09/16 08:17:07;;;;;;;;;4.80;3.60;;;;;26.36;48.29;98674.72;5076847;28;8851;-76
2022/09/16 08:19:37;;;;;;;;;5.00;5.00;;;;;26.74;47.58;98670.81;5089402;28;8870;-70
2022/09/16 08:22:05;;;;;;;;;5.00;4.00;;;;;27.09;46.90;98675.06;5081352;28;8878;-69
2022/09/16 08:24:34;;;;;;;;;5.00;4.60;;;;;27.37;46.32;98684.38;5083202;28;8952;-71
2022/09/16 08:27:03;;;;;;;;;3.60;3.00;;;;;27.57;45.56;98680.84;5090635;28;8909;-72
2022/09/16 08:29:33;;;;;;;;;5.20;5.20;;;;;27.53;44.94;98679.41;5090546;28;8871;-72
2022/09/16 08:32:02;;;;;;;;;5.40;5.40;;;;;26.68;47.16;98679.34;5079565;28;8934;-73
2022/09/16 08:34:30;;;;;;;;;4.20;4.20;;;;;27.25;46.76;98669.31;5091526;28;8856;-71
2022/09/16 08:36:59;;;;;;;;;6.00;6.00;;;;;27.56;46.07;98657.75;5077756;28;8862;-71
2022/09/16 08:39:27;;;;;;;;;2.40;2.00;;;;;27.75;45.11;98664.19;5090586;28;9729;-73
2022/09/16 08:42:23;;;;;;;;;2.20;2.20;;;;;28.15;43.92;98669.66;5090070;28;9022;-72
2022/09/16 08:45:01;;;;;;;;;2.60;2.00;;;;;28.32;42.86;98662.81;5084732;28;8846;-71
2022/09/16 08:47:41;;;;;;;;;2.00;2.00;;;;;28.48;42.55;98651.56;5087485;28;8860;-71
2022/09/16 08:50:16;;;;;;;;;2.80;2.80;;;;;28.66;42.08;98665.22;5087852;28;8953;-73
2022/09/16 08:52:45;;;;;;;;;3.00;2.00;;;;;28.86;41.59;98673.28;5087923;28;8860;-70
2022/09/16 08:55:18;;;;;;;;;3.00;3.00;;;;;29.09;41.08;98681.94;5089338;28;8859;-70
2022/09/16 08:57:56;;;;;;;;;3.00;3.00;;;;;29.24;40.06;98674.34;5088900;28;8898;-73
2022/09/16 09:00:26;;;;;;;;;4.80;3.60;;;;;29.28;40.56;98679.31;5088396;28;8956;-72
2022/09/16 09:02:58;;;;;;;;;2.40;2.40;;;;;29.39;39.49;98683.66;5087599;28;8880;-72
2022/09/16 09:05:38;;;;;;;;;2.60;2.60;;;;;29.50;39.47;98666.56;5089002;28;8847;-73
2022/09/16 09:08:21;;;;;;;;;2.60;2.60;;;;;29.60;38.54;98645.88;5069353;28;8864;-74
2022/09/16 09:10:56;;;;;;;;;3.20;3.00;;;;;29.19;39.39;98644.38;5088609;28;8972;-71
2022/09/16 09:13:39;;;;;;;;;1.60;1.60;;;;;29.23;39.56;98643.13;5073710;28;8857;-73
2022/09/16 09:16:20;;;;;;;;;5.00;4.00;;;;;29.23;39.54;98643.13;5088398;28;8948;-73
2022/09/16 09:18:57;;;;;;;;;8.00;8.00;;;;;28.75;40.83;98656.34;5086465;28;8863;-74
2022/09/16 09:21:35;;;;;;;;;5.60;5.20;;;;;29.01;40.96;98649.56;5088520;28;9636;-73
2022/09/16 09:24:19;;;;;;;;;4.00;4.00;;;;;29.17;40.53;98649.91;5104426;28;8864;-73
2022/09/16 09:26:50;;;;;;;;;2.00;2.00;;;;;29.25;39.49;98633.09;5082831;28;8838;-72
2022/09/16 09:29:42;;;;;;;;;3.60;2.60;;;;;29.43;39.01;98633.19;5080809;28;8898;-71
2022/09/16 09:32:25;;;;;;;;;3.80;3.00;;;;;29.58;39.11;98638.97;5088106;28;9391;-72
2022/09/16 09:35:08;;;;;;;;;2.40;2.40;;;;;29.73;38.54;98641.06;5068551;28;8847;-72
2022/09/16 09:37:52;;;;;;;;;3.20;3.20;;;;;29.89;38.19;98645.03;5076174;28;8878;-71
2022/09/16 09:40:27;;;;;;;;;3.00;3.00;;;;;29.90;38.07;98654.78;5087477;28;8844;-71
2022/09/16 09:43:09;;;;;;;;;1.80;1.80;;;;;29.95;37.98;98641.75;5088331;28;8848;-72
2022/09/16 09:45:43;;;;;;;;;2.00;2.00;;;;;29.85;37.65;98641.78;5086646;28;9702;-72
2022/09/16 09:48:20;;;;;;;;;2.00;2.00;;;;;29.86;37.47;98642.63;5085643;28;8851;-72
2022/09/16 09:50:50;;;;;;;;;3.00;3.00;;;;;29.88;37.25;98644.16;5067945;28;8869;-72
2022/09/16 09:53:24;;;;;;;;;2.20;2.20;;;;;30.04;36.94;98637.31;5074869;28;8836;-73
2022/09/16 09:56:00;;;;;;;;;2.00;2.00;;;;;30.16;37.53;98629.91;5087778;28;8859;-71
2022/09/16 09:58:37;;;;;;;;;3.00;3.00;;;;;30.25;36.96;98629.03;5087702;28;8879;-74
2022/09/16 10:01:05;;;;;;;;;2.20;2.20;;;;;30.32;37.29;98619.38;5086581;28;8860;-71
2022/09/16 10:03:36;;;;;;;;;1.40;0.80;;;;;30.38;37.43;98612.56;5087789;28;8832;-72
2022/09/16 10:06:05;;;;;;;;;2.00;2.00;;;;;30.34;37.66;98617.41;5083553;28;9799;-70
2022/09/16 10:08:41;;;;;;;;;6.00;4.60;;;;;30.33;36.95;98617.56;5073458;28;8900;-70
2022/09/16 10:11:17;;;;;;;;;3.80;3.00;;;;;30.31;36.70;98645.41;5087288;28;8925;-70
2022/09/16 10:13:50;;;;;;;;;5.40;4.40;;;;;28.43;40.03;98688.69;5086837;28;8994;-73
2022/09/16 10:16:21;;;;;;;;;3.80;3.80;;;;;26.91;43.89;98672.09;5051851;28;8940;-71
2022/09/16 10:18:58;;;;;;;;;3.80;3.80;;;;;27.87;43.95;98606.88;5086035;28;8871;-79
2022/09/16 10:21:39;;;;;;;;;3.80;3.40;;;;;28.33;44.59;98608.19;5065388;28;8876;-70
2022/09/16 10:24:28;;;;;;;;;3.80;3.80;;;;;28.61;44.96;98594.19;5084595;28;8855;-70
2022/09/16 10:26:57;;;;;;;;;2.00;2.00;;;;;28.47;44.62;98571.22;5043872;28;9008;-70
2022/09/16 10:29:26;;;;;;;;;3.00;3.00;;;;;28.77;45.55;98556.88;5087877;28;8901;-72
2022/09/16 10:31:57;;;;;;;;;5.00;5.00;;;;;28.95;45.19;98559.72;5086555;28;8983;-71
2022/09/16 10:34:32;;;;;;;;;4.20;4.20;;;;;28.89;44.82;98563.81;5087666;28;8860;-71
2022/09/16 10:37:05;;;;;;;;;3.00;3.00;;;;;28.94;44.27;98568.75;5087744;28;8878;-71
2022/09/16 10:39:34;;;;;;;;;3.80;3.20;;;;;29.04;44.29;98574.16;5087363;28;8880;-70
2022/09/16 10:42:05;;;;;;;;;4.20;3.00;;;;;29.05;44.39;98578.50;5086437;28;8932;-70
2022/09/16 10:44:36;;;;;;;;;4.60;4.00;;;;;29.08;44.63;98570.19;5119422;27;8903;-70
2022/09/16 10:47:14;;;;;;;;;2.60;2.60;;;;;29.00;44.35;98561.97;5087455;28;9585;-71
2022/09/16 10:49:48;;;;;;;;;5.20;4.40;;;;;28.99;44.47;98565.66;5087245;28;8941;-71
2022/09/16 10:52:18;;;;;;;;;3.20;3.20;;;;;29.00;44.52;98568.22;5087417;28;8874;-70
2022/09/16 10:54:47;;;;;;;;;2.00;2.00;;;;;29.02;44.58;98568.91;5081233;28;8842;-73
2022/09/16 10:57:25;;;;;;;;;6.20;5.20;;;;;29.14;45.07;98567.78;5066084;28;8862;-73
2022/09/16 10:59:59;;;;;;;;;5.00;4.40;;;;;29.14;44.75;98556.22;5084694;28;8875;-74
2022/09/16 11:02:43;;;;;;;;;2.20;2.20;;;;;29.13;43.99;98541.94;5087589;28;8944;-72
2022/09/16 11:05:24;;;;;;;;;2.40;2.40;;;;;29.18;44.01;98537.97;5086310;28;8945;-71
2022/09/16 11:08:02;;;;;;;;;6.40;5.40;;;;;29.25;44.63;98536.41;5087111;28;9498;-70
2022/09/16 11:10:41;;;;;;;;;4.00;2.80;;;;;29.24;44.74;98530.16;5087314;28;8864;-73
2022/09/16 11:13:29;;;;;;;;;3.40;3.40;;;;;29.29;44.68;98514.47;5084979;28;8844;-71
2022/09/16 11:16:16;;;;;;;;;5.40;5.40;;;;;29.20;44.33;98498.41;5038152;28;8852;-72
2022/09/16 11:18:54;;;;;;;;;3.60;3.60;;;;;29.08;44.78;98497.69;5087311;28;8883;-71
2022/09/16 11:21:54;;;;;;;;;4.20;3.80;;;;;29.14;44.81;98495.28;5067995;28;8860;-71
2022/09/16 11:24:42;;;;;;;;;3.20;3.20;;;;;29.09;44.68;98492.19;5057504;28;8868;-70
2022/09/16 11:27:20;;;;;;;;;5.00;5.00;;;;;29.02;44.63;98507.16;5017176;28;8869;-72
2022/09/16 11:29:59;;;;;;;;;5.40;4.60;;;;;28.89;45.25;98520.03;5043740;28;8842;-70
2022/09/16 11:32:38;;;;;;;;;6.20;6.20;;;;;27.21;49.65;98557.13;5043899;28;8968;-73
2022/09/16 11:35:33;;;;;;;;;6.00;5.20;;;;;27.41;49.02;98547.44;5043961;28;9596;-70
2022/09/16 11:38:15;;;;;;;;;4.00;4.00;;;;;27.24;49.92;98539.97;5004449;28;8854;-72
2022/09/16 11:40:47;;;;;;;;;4.20;4.20;;;;;27.41;50.41;98503.72;4987566;28;9616;-70
2022/09/16 11:43:53;;;;;;;;;5.60;4.80;;;;;27.57;49.99;98490.69;5004589;28;8862;-72
2022/09/16 11:46:31;;;;;;;;;9.00;7.40;;;;;27.46;51.63;98490.78;4965742;28;8880;-74
2022/09/16 11:49:27;;;;;;;;;7.60;7.20;;;;;27.57;51.49;98489.84;4997935;28;9010;-71
2022/09/16 11:52:09;;;;;;;;;7.20;7.20;;;;;27.50;52.56;98513.63;4986387;28;8889;-72
2022/09/16 11:55:06;;;;;;;;;11.80;11.80;;;;;27.02;54.78;98511.50;4946703;28;8951;-71
2022/09/16 11:57:39;;;;;;;;;10.20;9.80;;;;;26.86;55.36;98511.94;4985971;28;8870;-71
2022/09/16 12:00:12;;;;;;;;;5.60;5.60;;;;;26.89;55.39;98498.31;4985177;28;8988;-71
2022/09/16 12:02:46;;;;;;;;;9.40;9.00;;;;;26.94;55.55;98488.09;5010928;28;8928;-70
2022/09/16 12:05:20;;;;;;;;;8.40;8.40;;;;;26.89;56.03;98460.03;5047427;28;8827;-71
2022/09/16 12:07:56;;;;;;;;;10.40;9.60;;;;;26.79;56.61;98471.50;5046906;28;9660;-72
2022/09/16 12:10:32;;;;;;;;;10.80;10.80;;;;;26.95;56.27;98480.91;5069895;28;9124;-70
2022/09/16 12:13:08;;;;;;;;;10.00;10.00;;;;;26.49;57.33;98493.63;5070418;28;8855;-70
2022/09/16 12:15:43;;;;;;;;;9.20;9.20;;;;;26.51;57.19;98488.16;5087026;28;8831;-70